Time;durP1;ratioP1;P1;durP2;ratioP2;P2;SDS_P1;SDS_P2;PMS_P1;PMS_P2;Temp;Humidity;BMP_temperature;BMP_pressure;BME280_temperature;BME280_humidity;BME280_pressure;Samples;Min_cycle;Max_cycle;Signal;HPM_P1;HPM_P2
2023/01/02 00:00:00;;;;;;;21.30;6.13;;;8.50;99.90;;;;;;5031530;28;20056;-70
2023/01/02 00:02:26;;;;;;;22.33;5.63;;;9.80;99.90;;;;;;5031995;28;20049;-70
2023/01/02 00:04:53;;;;;;;20.10;6.75;;;9.40;99.90;;;;;;5032013;28;20045;-69
2023/01/02 00:07:18;;;;;;;21.63;7.55;;;8.70;99.90;;;;;;5031673;28;20413;-69
2023/01/02 00:09:44;;;;;;;25.02;7.47;;;8.60;99.90;;;;;;5031757;28;20053;-69
2023/01/02 00:12:10;;;;;;;25.48;7.20;;;10.20;99.90;;;;;;5031854;28;20081;-69
2023/01/02 00:14:35;;;;;;;30.90;8.68;;;10.30;99.90;;;;;;5031757;28;20046;-69
2023/01/02 00:17:01;;;;;;;24.63;7.38;;;8.80;99.90;;;;;;5032092;28;20087;-68
2023/01/02 00:19:27;;;;;;;19.63;7.10;;;9.00;99.90;;;;;;5031986;28;20052;-68
2023/01/02 00:21:53;;;;;;;21.15;8.82;;;10.70;99.90;;;;;;5031880;28;20053;-68
2023/01/02 00:24:18;;;;;;;29.80;9.00;;;10.40;99.90;;;;;;5031605;28;20052;-67
2023/01/02 00:26:44;;;;;;;24.38;8.85;;;8.30;99.90;;;;;;5031741;28;20077;-68
2023/01/02 00:29:10;;;;;;;21.50;7.22;;;8.60;99.90;;;;;;5031801;28;20064;-67
2023/01/02 00:31:35;;;;;;;18.42;5.90;;;8.30;99.90;;;;;;5031760;28;20041;-68
2023/01/02 00:34:01;;;;;;;14.50;5.45;;;9.70;99.90;;;;;;5031689;28;20103;-68
2023/01/02 00:36:27;;;;;;;17.05;5.68;;;10.40;99.90;;;;;;5031604;28;20048;-68
2023/01/02 00:38:56;;;;;;;17.00;5.80;;;10.00;99.90;;;;;;5031375;28;20398;-68
2023/01/02 00:41:22;;;;;;;21.92;6.13;;;8.70;99.90;;;;;;5031674;28;20053;-68
2023/01/02 00:43:47;;;;;;;22.25;6.53;;;10.30;99.90;;;;;;5031608;28;20084;-68
2023/01/02 00:46:14;;;;;;;15.43;6.57;;;9.60;99.90;;;;;;5031633;28;20060;-68
2023/01/02 00:48:40;;;;;;;12.80;5.90;;;10.40;99.90;;;;;;5031573;28;20053;-68
2023/01/02 00:51:06;;;;;;;17.63;6.30;;;9.90;99.90;;;;;;5031487;28;20133;-68
2023/01/02 00:53:32;;;;;;;15.02;6.30;;;10.50;99.90;;;;;;5031169;28;20045;-68
2023/01/02 00:55:57;;;;;;;12.38;4.65;;;10.40;99.90;;;;;;5031367;28;20041;-68
2023/01/02 00:58:23;;;;;;;10.65;5.22;;;8.90;99.90;;;;;;5031092;28;20103;-68
2023/01/02 01:00:50;;;;;;;10.82;4.97;;;9.90;99.90;;;;;;5030199;28;20041;-69
2023/01/02 01:03:15;;;;;;;11.68;4.78;;;10.40;99.90;;;;;;5031332;28;20045;-70
2023/01/02 01:05:41;;;;;;;10.82;5.10;;;10.30;99.90;;;;;;5030313;28;20566;-70
2023/01/02 01:08:07;;;;;;;9.48;5.00;;;10.40;99.90;;;;;;5031370;28;20402;-69
2023/01/02 01:10:35;;;;;;;15.88;5.60;;;10.40;99.90;;;;;;5033662;28;20045;-70
2023/01/02 01:13:01;;;;;;;13.15;5.22;;;10.20;99.90;;;;;;5034983;28;20060;-70
2023/01/02 01:15:26;;;;;;;8.15;4.35;;;10.10;99.90;;;;;;5034876;28;20478;-70
2023/01/02 01:17:52;;;;;;;9.27;4.80;;;10.50;99.90;;;;;;5033663;28;20114;-70
2023/01/02 01:20:18;;;;;;;10.27;4.75;;;10.10;99.90;;;;;;5035141;28;20045;-69
2023/01/02 01:22:43;;;;;;;18.15;4.80;;;10.50;99.90;;;;;;5034518;28;20522;-70
2023/01/02 01:25:09;;;;;;;10.23;4.65;;;10.50;99.90;;;;;;5034762;28;20053;-69
2023/01/02 01:27:35;;;;;;;10.90;5.10;;;8.50;99.90;;;;;;5034807;28;20053;-70
2023/01/02 01:30:01;;;;;;;17.45;5.60;;;8.50;99.90;;;;;;5033637;28;20393;-70
2023/01/02 01:32:30;;;;;;;13.02;5.90;;;9.40;99.90;;;;;;5033678;28;20557;-70
2023/01/02 01:34:56;;;;;;;13.90;5.50;;;9.90;99.90;;;;;;5034612;28;20164;-70
2023/01/02 01:37:22;;;;;;;13.50;5.45;;;10.30;99.90;;;;;;5034246;28;20077;-70
2023/01/02 01:39:47;;;;;;;13.73;6.47;;;8.30;99.90;;;;;;5034547;28;20041;-69
2023/01/02 01:42:14;;;;;;;10.07;6.60;;;8.20;99.90;;;;;;5033138;28;20063;-70
2023/01/02 01:44:42;;;;;;;16.67;7.00;;;8.90;99.90;;;;;;5034443;28;20053;-70
2023/01/02 01:47:30;;;;;;;19.73;6.90;;;8.50;99.90;;;;;;5034372;28;20096;-70
2023/01/02 01:50:05;;;;;;;15.93;8.15;;;9.30;99.90;;;;;;5034358;28;20057;-70
2023/01/02 01:52:34;;;;;;;19.52;8.43;;;9.90;99.90;;;;;;5034075;28;20051;-69
2023/01/02 01:55:25;;;;;;;22.83;9.27;;;8.40;99.90;;;;;;5034232;28;20464;-70
2023/01/02 01:58:04;;;;;;;19.58;9.38;;;9.40;99.90;;;;;;5032822;28;20502;-70
2023/01/02 02:00:30;;;;;;;21.58;9.40;;;10.90;99.90;;;;;;5034223;28;20085;-69
2023/01/02 02:03:03;;;;;;;21.55;9.82;;;10.80;99.90;;;;;;5033777;28;20498;-70
2023/01/02 02:05:30;;;;;;;24.90;9.93;;;8.90;99.90;;;;;;5033798;28;20107;-69
2023/01/02 02:08:03;;;;;;;21.38;10.30;;;10.90;99.90;;;;;;5033704;28;20493;-69
2023/01/02 02:10:29;;;;;;;26.20;11.65;;;8.80;99.90;;;;;;5032713;28;20049;-69
2023/01/02 02:12:54;;;;;;;25.05;10.60;;;10.80;99.90;;;;;;5033920;28;20042;-69
2023/01/02 02:15:28;;;;;;;30.15;11.98;;;10.90;99.90;;;;;;5033790;28;20049;-69
2023/01/02 02:18:21;;;;;;;26.55;12.20;;;11.10;99.90;;;;;;5033819;28;20057;-69
2023/01/02 02:20:52;;;;;;;22.48;11.27;;;11.00;99.90;;;;;;5033577;28;20564;-70
2023/01/02 02:23:39;;;;;;;24.48;11.60;;;11.30;99.90;;;;;;5033521;28;20045;-69
2023/01/02 02:26:30;;;;;;;28.08;12.18;;;10.50;99.90;;;;;;5034002;28;20486;-70
2023/01/02 02:29:16;;;;;;;25.90;11.32;;;8.50;99.90;;;;;;5033483;28;20050;-69
2023/01/02 02:31:58;;;;;;;27.17;11.37;;;11.40;99.90;;;;;;5033636;28;20045;-69
2023/01/02 02:34:36;;;;;;;26.00;11.50;;;9.10;99.90;;;;;;5033272;28;20045;-69
2023/01/02 02:37:05;;;;;;;24.95;11.52;;;10.70;99.90;;;;;;5033347;28;20132;-70
2023/01/02 02:39:58;;;;;;;25.75;11.13;;;8.60;99.90;;;;;;5033371;28;20053;-70
2023/01/02 02:42:39;;;;;;;24.40;11.10;;;11.30;99.90;;;;;;5033345;28;20049;-70
2023/01/02 02:45:23;;;;;;;25.67;10.60;;;9.10;99.90;;;;;;5015566;28;20060;-69
2023/01/02 02:48:00;;;;;;;25.13;11.25;;;11.60;99.90;;;;;;5033272;28;20050;-70
2023/01/02 02:50:32;;;;;;;26.20;11.60;;;10.30;99.90;;;;;;5033016;28;20046;-70
2023/01/02 02:53:02;;;;;;;24.13;11.63;;;9.40;99.90;;;;;;5033178;28;20067;-70
2023/01/02 02:55:49;;;;;;;22.17;11.30;;;10.90;99.90;;;;;;5032975;28;20045;-70
2023/01/02 02:58:17;;;;;;;24.00;11.50;;;9.10;99.90;;;;;;5032689;28;20143;-70
2023/01/02 03:00:43;;;;;;;23.05;11.75;;;9.00;99.90;;;;;;5032957;28;20119;-70
2023/01/02 03:03:21;;;;;;;23.70;11.88;;;12.60;99.90;;;;;;5031307;28;20489;-69
2023/01/02 03:06:23;;;;;;;23.17;12.38;;;11.70;99.90;;;;;;5032745;28;20128;-68
2023/01/02 03:09:13;;;;;;;28.15;13.65;;;11.20;99.90;;;;;;5032784;28;20464;-68
2023/01/02 03:12:18;;;;;;;30.30;14.88;;;11.60;99.90;;;;;;5032756;28;20137;-68
2023/01/02 03:15:29;;;;;;;31.77;15.95;;;11.50;99.90;;;;;;5032724;28;20048;-68
2023/01/02 03:18:33;;;;;;;37.05;16.88;;;11.00;99.90;;;;;;5032355;28;20053;-69
2023/01/02 03:21:19;;;;;;;36.47;18.85;;;8.90;99.90;;;;;;5032562;28;20053;-69
2023/01/02 03:23:48;;;;;;;37.25;20.58;;;12.20;99.90;;;;;;5032280;28;20057;-69
2023/01/02 03:26:18;;;;;;;38.55;21.77;;;9.50;99.90;;;;;;5032411;28;20049;-69
2023/01/02 03:28:47;;;;;;;44.63;24.33;;;10.20;99.90;;;;;;5032458;28;20050;-69
2023/01/02 03:31:17;;;;;;;49.47;25.00;;;12.00;99.90;;;;;;5032336;28;20081;-67
2023/01/02 03:33:51;;;;;;;56.45;26.15;;;8.90;99.90;;;;;;5031255;28;20052;-68
2023/01/02 03:36:25;;;;;;;52.28;26.08;;;11.40;99.90;;;;;;5032292;28;20479;-68
2023/01/02 03:39:14;;;;;;;55.90;26.23;;;8.80;99.90;;;;;;5032272;28;20084;-68
2023/01/02 03:42:06;;;;;;;55.35;27.23;;;12.00;99.90;;;;;;5032277;28;20060;-68
2023/01/02 03:44:47;;;;;;;49.35;26.15;;;12.20;99.90;;;;;;5023272;28;20115;-68
2023/01/02 03:47:34;;;;;;;62.60;28.63;;;10.40;99.90;;;;;;5031583;28;20566;-68
2023/01/02 03:50:06;;;;;;;54.60;27.38;;;12.40;99.90;;;;;;5032122;28;20053;-68
2023/01/02 03:52:31;;;;;;;54.75;27.45;;;9.20;99.90;;;;;;5032102;28;20056;-68
2023/01/02 03:54:59;;;;;;;50.35;26.52;;;11.90;99.90;;;;;;5030620;28;20417;-69
2023/01/02 03:57:33;;;;;;;58.00;28.65;;;12.10;99.90;;;;;;5031630;28;20074;-68
2023/01/02 04:00:07;;;;;;;59.03;26.20;;;9.30;99.90;;;;;;5031910;28;20119;-68
2023/01/02 04:02:47;;;;;;;56.25;26.45;;;12.30;99.90;;;;;;5031690;28;20052;-69
2023/01/02 04:05:45;;;;;;;53.95;26.60;;;10.90;99.90;;;;;;5031908;28;20083;-68
2023/01/02 04:08:23;;;;;;;;;;;9.10;99.90;;;;;;5032401;28;20067;-68
2023/01/02 04:10:52;;;;;;;50.38;24.98;;;9.00;99.90;;;;;;5031934;28;19924;-68
2023/01/02 04:13:22;;;;;;;48.47;24.90;;;12.10;99.90;;;;;;5031824;28;20063;-68
2023/01/02 04:15:49;;;;;;;49.97;25.30;;;11.90;99.90;;;;;;5031499;28;20413;-68
2023/01/02 04:18:24;;;;;;;51.88;25.38;;;9.20;99.90;;;;;;5031783;28;20132;-68
2023/01/02 04:20:53;;;;;;;56.13;25.77;;;9.30;99.90;;;;;;5032130;28;20060;-68
2023/01/02 04:23:30;;;;;;;50.88;24.95;;;9.70;99.90;;;;;;5031834;28;20506;-67
2023/01/02 04:26:12;;;;;;;56.58;25.08;;;11.10;99.90;;;;;;5031822;28;20042;-68
2023/01/02 04:28:38;;;;;;;54.30;25.10;;;10.40;99.90;;;;;;5031792;28;20828;-68
2023/01/02 04:31:08;;;;;;;57.20;24.88;;;9.60;99.90;;;;;;5031340;28;20135;-68
2023/01/02 04:33:38;;;;;;;54.55;25.30;;;9.40;99.90;;;;;;5031561;28;20404;-67
2023/01/02 04:36:13;;;;;;;58.28;24.63;;;9.40;99.90;;;;;;5031604;28;20037;-68
2023/01/02 04:38:41;;;;;;;51.38;24.42;;;11.40;99.90;;;;;;5031560;28;20058;-68
2023/01/02 04:41:08;;;;;;;51.30;24.38;;;9.20;99.90;;;;;;5030228;28;20500;-68
2023/01/02 04:43:34;;;;;;;54.95;26.00;;;12.10;99.90;;;;;;5031512;28;20049;-69
2023/01/02 04:46:00;;;;;;;55.53;25.98;;;9.60;99.90;;;;;;5034415;28;20107;-68
2023/01/02 04:48:25;;;;;;;55.60;25.52;;;12.70;99.90;;;;;;5035448;28;20041;-69
2023/01/02 04:50:53;;;;;;;55.47;24.77;;;11.70;99.90;;;;;;5035461;28;20045;-70
2023/01/02 04:53:19;;;;;;;61.20;25.85;;;9.30;99.90;;;;;;5035353;28;20093;-70
2023/01/02 04:55:45;;;;;;;63.08;26.33;;;9.20;99.90;;;;;;5035323;28;20086;-70
2023/01/02 04:58:11;;;;;;;57.53;23.98;;;9.20;99.90;;;;;;5035140;28;20097;-69
2023/01/02 05:00:37;;;;;;;68.05;25.92;;;9.00;99.90;;;;;;5035006;28;20191;-69
2023/01/02 05:03:03;;;;;;;56.25;24.13;;;12.60;99.90;;;;;;5035232;28;20041;-68
2023/01/02 05:05:30;;;;;;;67.18;24.25;;;9.50;99.90;;;;;;5035092;28;20143;-69
2023/01/02 05:07:56;;;;;;;;;;;9.80;99.90;;;;;;5035662;28;20059;-69
2023/01/02 05:10:22;;;;;;;55.90;21.77;;;12.30;99.90;;;;;;5034003;28;20143;-69
2023/01/02 05:12:48;;;;;;;43.85;19.33;;;11.10;99.90;;;;;;5034007;28;20136;-69
2023/01/02 05:15:13;;;;;;;45.65;19.98;;;12.20;99.90;;;;;;5034764;28;20053;-69
2023/01/02 05:17:41;;;;;;;43.80;19.75;;;9.00;99.90;;;;;;5033511;28;20053;-69
2023/01/02 05:20:10;;;;;;;39.92;18.75;;;9.30;99.90;;;;;;5034885;28;20060;-70
2023/01/02 05:25:24;;;;;;;46.67;20.88;;;10.60;99.90;;;;;;5034759;28;20093;-70
2023/01/02 05:27:54;;;;;;;38.75;18.65;;;9.70;99.90;;;;;;5034433;28;20049;-70
2023/01/02 05:30:20;;;;;;;40.47;19.13;;;13.00;99.90;;;;;;5034702;28;20057;-70
2023/01/02 05:32:46;;;;;;;40.35;18.02;;;11.20;99.90;;;;;;5034725;28;20045;-69
2023/01/02 05:35:12;;;;;;;38.92;17.77;;;12.70;99.90;;;;;;5034593;28;20065;-69
2023/01/02 05:37:37;;;;;;;38.80;17.67;;;12.80;99.90;;;;;;5034503;28;20049;-69
2023/01/02 05:40:04;;;;;;;33.78;16.58;;;9.00;99.90;;;;;;5034489;28;20055;-69
2023/01/02 05:42:29;;;;;;;;;;;10.60;99.90;;;;;;5034709;28;20049;-68
2023/01/02 05:44:55;;;;;;;33.38;15.57;;;11.30;99.90;;;;;;5034441;28;20334;-68
2023/01/02 05:47:21;;;;;;;34.20;16.05;;;12.40;99.90;;;;;;5033196;28;20053;-68
2023/01/02 05:49:46;;;;;;;25.88;14.52;;;9.20;99.90;;;;;;5034335;28;20052;-68
2023/01/02 05:52:12;;;;;;;24.00;13.57;;;12.50;99.90;;;;;;5034349;28;20478;-68
2023/01/02 05:54:38;;;;;;;24.17;12.32;;;9.30;99.90;;;;;;5034229;28;20120;-69
2023/01/02 05:57:03;;;;;;;22.80;12.07;;;12.80;99.90;;;;;;4998919;28;20426;-69
2023/01/02 05:59:29;;;;;;;20.08;11.55;;;12.40;99.90;;;;;;5034249;28;20057;-69
2023/01/02 06:01:55;;;;;;;20.55;11.60;;;12.60;99.90;;;;;;5034143;28;20049;-69
2023/01/02 06:04:21;;;;;;;19.73;11.70;;;12.30;99.90;;;;;;5034129;28;20129;-67
2023/01/02 06:06:46;;;;;;;22.58;11.98;;;11.60;99.90;;;;;;5034073;28;20041;-68
2023/01/02 06:09:13;;;;;;;18.15;10.88;;;10.70;99.90;;;;;;5032813;28;20045;-68
2023/01/02 06:11:39;;;;;;;15.07;9.65;;;10.50;99.90;;;;;;5016074;28;20067;-68
2023/01/02 06:14:05;;;;;;;14.18;8.80;;;9.50;99.90;;;;;;5033907;28;20132;-67
2023/01/02 06:16:31;;;;;;;26.48;8.95;;;12.20;99.90;;;;;;5033920;28;20088;-67
2023/01/02 06:18:57;;;;;;;28.85;8.93;;;9.60;99.90;;;;;;5034200;28;20104;-69
2023/01/02 06:21:22;;;;;;;22.08;7.40;;;9.10;99.90;;;;;;5033920;28;20053;-68
2023/01/02 06:23:53;;;;;;;17.45;6.05;;;9.10;99.90;;;;;;5033839;28;20048;-68
2023/01/02 06:26:20;;;;;;;14.35;4.80;;;8.60;99.90;;;;;;5033265;28;20577;-69
2023/01/02 06:28:48;;;;;;;;;;;9.10;99.90;;;;;;5034193;28;20092;-69
2023/01/02 06:31:15;;;;;;;12.68;4.18;;;8.10;99.90;;;;;;5032384;28;19921;-69
2023/01/02 06:33:41;;;;;;;12.02;3.45;;;10.70;99.90;;;;;;5033530;28;20088;-69
2023/01/02 06:36:15;;;;;;;12.10;3.20;;;10.50;99.90;;;;;;5033460;28;20049;-68
2023/01/02 06:38:41;;;;;;;14.40;3.70;;;8.20;99.90;;;;;;5033578;28;20057;-67
2023/01/02 06:41:07;;;;;;;20.45;3.58;;;8.00;99.90;;;;;;5033190;28;20045;-70
2023/01/02 06:43:35;;;;;;;15.80;3.05;;;8.20;99.90;;;;;;5033350;28;20056;-71
2023/01/02 06:46:03;;;;;;;13.10;2.60;;;9.60;99.90;;;;;;5033003;28;20505;-70
2023/01/02 06:48:31;;;;;;;10.57;1.70;;;10.80;99.90;;;;;;5033223;28;20049;-70
2023/01/02 06:51:00;;;;;;;10.27;3.72;;;7.00;99.90;;;;;;5033197;28;20054;-71
2023/01/02 06:53:26;;;;;;;8.82;3.88;;;7.20;99.90;;;;;;5033207;28;20049;-71
2023/01/02 06:55:54;;;;;;;6.03;1.80;;;7.30;99.90;;;;;;5032807;28;20049;-70
2023/01/02 07:03:54;;;;;;;4.55;1.38;;;6.50;99.90;;;;;;5150911;27;20454;-70
2023/01/02 07:06:21;;;;;;;5.82;1.30;;;6.60;99.90;;;;;;5151059;27;20407;-70
2023/01/02 07:08:48;;;;;;;6.03;1.27;;;9.70;99.90;;;;;;5150987;27;20047;-70
2023/01/02 07:11:20;;;;;;;4.50;1.20;;;8.00;99.90;;;;;;5150636;27;20085;-70
2023/01/02 07:13:48;;;;;;;4.53;1.15;;;6.60;99.90;;;;;;5150905;27;20058;-70
2023/01/02 07:16:16;;;;;;;3.90;1.30;;;6.80;99.90;;;;;;5150876;27;20050;-71
2023/01/02 07:18:42;;;;;;;3.92;1.30;;;6.50;99.90;;;;;;5150788;27;20505;-71
2023/01/02 07:21:09;;;;;;;10.00;1.45;;;7.50;99.90;;;;;;5150765;27;20053;-71
2023/01/02 07:23:35;;;;;;;4.22;1.23;;;10.00;99.90;;;;;;5150613;27;20050;-72
2023/01/02 07:26:03;;;;;;;6.28;1.48;;;6.70;99.90;;;;;;5150547;27;20043;-71
2023/01/02 07:28:29;;;;;;;8.35;1.40;;;6.70;99.90;;;;;;5150588;27;20100;-71
2023/01/02 07:31:00;;;;;;;12.20;1.70;;;9.80;99.90;;;;;;5150502;27;20042;-70
2023/01/02 07:33:28;;;;;;;11.73;2.22;;;7.60;99.90;;;;;;5149476;27;20142;-70
2023/01/02 07:35:58;;;;;;;9.68;2.42;;;8.70;99.90;;;;;;5150527;27;20086;-71
2023/01/02 07:38:24;;;;;;;13.75;2.10;;;9.20;99.90;;;;;;5149933;27;20047;-71
2023/01/02 07:40:49;;;;;;;8.18;1.70;;;10.30;99.90;;;;;;5150383;27;20047;-70
2023/01/02 07:43:15;;;;;;;10.23;1.70;;;8.80;99.90;;;;;;5150297;27;20039;-70
2023/01/02 07:45:41;;;;;;;9.57;1.80;;;6.70;99.90;;;;;;5150165;27;20090;-71
2023/01/02 07:48:06;;;;;;;8.18;1.67;;;9.70;99.90;;;;;;5150259;27;20095;-71
2023/01/02 07:50:32;;;;;;;5.30;1.38;;;8.70;99.90;;;;;;5150217;27;20069;-69
2023/01/02 07:52:58;;;;;;;8.70;1.98;;;10.20;99.90;;;;;;5149920;27;20108;-69
2023/01/02 07:55:23;;;;;;;15.07;2.50;;;9.70;99.90;;;;;;5149011;27;20054;-69
2023/01/02 07:57:49;;;;;;;12.18;2.65;;;8.70;99.90;;;;;;5150071;27;20039;-70
2023/01/02 08:00:18;;;;;;;14.75;2.70;;;10.50;99.90;;;;;;5150031;27;20055;-70
2023/01/02 08:02:45;;;;;;;16.92;2.67;;;7.70;99.90;;;;;;5149742;27;20063;-69
2023/01/02 08:05:11;;;;;;;17.17;3.53;;;8.60;99.90;;;;;;5149920;27;20126;-69
2023/01/02 08:07:36;;;;;;;10.82;1.70;;;8.40;99.90;;;;;;5149538;27;20475;-69
2023/01/02 08:10:02;;;;;;;7.45;2.38;;;6.60;99.90;;;;;;5149658;27;20050;-70
2023/01/02 08:12:28;;;;;;;13.73;1.85;;;9.70;99.90;;;;;;5111157;28;20043;-69
2023/01/02 08:14:54;;;;;;;12.75;1.48;;;9.20;99.90;;;;;;5124249;27;20383;-69
2023/01/02 08:17:19;;;;;;;6.32;1.50;;;9.50;99.90;;;;;;5134979;27;20043;-69
2023/01/02 08:19:45;;;;;;;6.38;1.27;;;7.20;99.90;;;;;;5135840;27;20094;-69
2023/01/02 08:22:11;;;;;;;6.75;1.08;;;6.80;99.90;;;;;;5135492;27;20138;-69
2023/01/02 08:24:36;;;;;;;7.50;1.85;;;9.60;99.90;;;;;;5134726;27;20365;-69
2023/01/02 08:27:02;;;;;;;5.10;1.23;;;6.70;99.90;;;;;;5135720;27;20097;-69
2023/01/02 08:29:28;;;;;;;4.55;1.10;;;6.60;99.90;;;;;;5135620;27;20542;-69
2023/01/02 08:31:56;;;;;;;7.07;1.40;;;7.90;99.90;;;;;;5134214;27;20099;-69
2023/01/02 08:34:22;;;;;;;6.40;1.33;;;8.10;99.90;;;;;;5135473;27;20054;-69
2023/01/02 08:36:47;;;;;;;8.82;1.23;;;9.60;99.90;;;;;;5133939;27;20043;-68
2023/01/02 08:39:14;;;;;;;8.88;1.30;;;9.80;99.90;;;;;;5133895;27;20130;-69
2023/01/02 08:41:40;;;;;;;6.22;1.38;;;7.20;99.90;;;;;;5133969;27;20047;-69
2023/01/02 08:44:06;;;;;;;9.70;1.35;;;6.80;99.90;;;;;;5134961;27;20088;-69
2023/01/02 08:46:33;;;;;;;7.72;1.70;;;10.00;99.90;;;;;;5134252;27;20387;-67
2023/01/02 08:48:59;;;;;;;10.88;1.65;;;7.90;99.90;;;;;;5150056;27;20043;-68
2023/01/02 08:51:26;;;;;;;6.50;1.50;;;6.70;99.90;;;;;;5150281;27;20105;-68
2023/01/02 08:53:52;;;;;;;7.45;1.67;;;8.50;99.90;;;;;;5141554;27;20074;-69
2023/01/02 08:56:31;;;;;;;6.90;1.42;;;6.80;99.90;;;;;;5132853;27;20475;-69
2023/01/02 08:59:00;;;;;;;8.45;2.28;;;8.60;99.90;;;;;;5132626;27;20047;-69
2023/01/02 09:01:27;;;;;;;7.05;1.60;;;7.20;99.90;;;;;;5133265;27;20039;-68
2023/01/02 09:03:54;;;;;;;10.38;1.45;;;6.90;99.90;;;;;;5134189;27;20132;-70
2023/01/02 09:06:20;;;;;;;;;;;10.40;99.90;;;;;;5134150;27;20047;-68
2023/01/02 09:08:46;;;;;;;8.45;1.95;;;6.50;99.90;;;;;;5134636;27;19930;-70
2023/01/02 09:11:15;;;;;;;7.68;2.10;;;6.60;99.90;;;;;;5134342;27;20130;-69
2023/01/02 09:13:41;;;;;;;7.97;1.95;;;6.60;99.90;;;;;;5133846;27;20039;-69
2023/01/02 09:16:08;;;;;;;5.93;2.03;;;9.90;99.90;;;;;;5134247;27;20047;-68
2023/01/02 09:18:34;;;;;;;5.53;2.13;;;10.40;99.90;;;;;;5134198;27;20139;-68
2023/01/02 09:21:00;;;;;;;5.93;2.08;;;7.60;99.90;;;;;;5133390;27;20042;-69
2023/01/02 09:23:26;;;;;;;7.10;2.00;;;6.50;99.90;;;;;;5134184;27;20051;-69
2023/01/02 09:25:56;;;;;;;;;;;10.10;99.90;;;;;;5133461;27;20039;-68
2023/01/02 09:28:21;;;;;;;7.65;2.70;;;10.10;99.90;;;;;;5133507;27;19930;-69
2023/01/02 09:30:47;;;;;;;8.98;2.60;;;6.90;99.90;;;;;;5133933;27;20051;-69
2023/01/02 09:33:12;;;;;;;7.28;2.50;;;9.40;99.90;;;;;;5133912;27;20479;-70
2023/01/02 09:35:38;;;;;;;7.88;2.38;;;7.10;99.90;;;;;;5114242;27;20433;-68
2023/01/02 09:38:04;;;;;;;12.93;2.67;;;9.90;99.90;;;;;;5132405;27;20051;-70
2023/01/02 09:40:31;;;;;;;6.72;2.70;;;6.80;99.90;;;;;;5132362;27;20807;-68
2023/01/02 09:42:58;;;;;;;6.40;2.42;;;8.10;99.90;;;;;;5131481;27;20911;-70
2023/01/02 09:45:24;;;;;;;11.27;2.40;;;7.40;99.90;;;;;;5131893;27;20135;-68
2023/01/02 09:47:52;;;;;;;;;;;6.90;99.90;;;;;;5133730;27;20075;-68
2023/01/02 09:50:25;;;;;;;6.15;1.92;;;8.70;99.90;;;;;;5131109;27;19924;-67
2023/01/02 09:52:57;;;;;;;9.60;2.40;;;10.00;99.90;;;;;;5133393;27;20171;-67
2023/01/02 09:55:49;;;;;;;4.00;2.00;;;7.20;99.90;;;;;;5133266;27;20066;-68
2023/01/02 09:58:42;;;;;;;6.65;2.10;;;7.20;99.90;;;;;;5132682;27;20419;-68
2023/01/02 10:01:30;;;;;;;8.60;2.17;;;6.80;99.90;;;;;;5133221;27;20039;-68
2023/01/02 10:03:59;;;;;;;5.15;1.77;;;9.00;99.90;;;;;;5124314;27;20811;-67
2023/01/02 10:06:33;;;;;;;4.55;1.90;;;7.10;99.90;;;;;;5131929;27;20054;-68
2023/01/02 10:08:58;;;;;;;4.72;2.40;;;10.10;99.90;;;;;;5133369;27;20112;-68
2023/01/02 10:11:30;;;;;;;5.60;2.00;;;7.40;99.90;;;;;;5133100;27;20172;-68
2023/01/02 10:14:14;;;;;;;5.38;1.88;;;10.00;99.90;;;;;;5132516;27;20056;-68
2023/01/02 10:16:47;;;;;;;7.70;2.00;;;7.70;99.90;;;;;;5132398;27;20043;-67
2023/01/02 10:19:44;;;;;;;6.15;1.85;;;8.10;99.90;;;;;;5132109;27;20046;-68
2023/01/02 10:22:16;;;;;;;8.27;1.80;;;8.50;99.90;;;;;;5132849;27;20047;-68
2023/01/02 10:24:49;;;;;;;6.93;1.85;;;7.20;99.90;;;;;;5132893;27;20447;-68
2023/01/02 10:27:21;;;;;;;5.85;1.73;;;8.20;99.90;;;;;;5132355;27;20054;-66
2023/01/02 10:30:01;;;;;;;4.28;1.63;;;7.00;99.90;;;;;;5132685;27;20050;-67
2023/01/02 10:32:29;;;;;;;5.25;2.10;;;7.40;99.90;;;;;;5132171;27;20047;-68
2023/01/02 10:35:07;;;;;;;4.72;1.60;;;8.10;99.90;;;;;;5132238;27;20047;-68
2023/01/02 10:37:34;;;;;;;5.82;1.98;;;8.70;99.90;;;;;;5132356;27;20051;-67
2023/01/02 10:40:00;;;;;;;6.70;2.92;;;9.50;99.90;;;;;;5131097;27;20530;-68
2023/01/02 10:42:25;;;;;;;6.88;2.17;;;7.30;99.90;;;;;;5132239;27;20050;-67
2023/01/02 10:44:51;;;;;;;5.47;2.65;;;10.20;99.90;;;;;;5114778;28;20049;-67
2023/01/02 10:47:38;;;;;;;7.07;2.78;;;7.10;99.90;;;;;;5131557;27;20051;-69
2023/01/02 10:50:14;;;;;;;8.40;3.57;;;10.10;99.90;;;;;;5133044;27;20047;-67
2023/01/02 10:53:03;;;;;;;8.88;4.20;;;7.80;99.90;;;;;;5131729;27;20303;-67
2023/01/02 10:55:36;;;;;;;8.57;3.65;;;7.20;99.90;;;;;;5131642;27;20376;-68
2023/01/02 10:58:14;;;;;;;6.63;3.15;;;7.20;99.90;;;;;;5131633;27;20039;-67
2023/01/02 11:00:40;;;;;;;7.70;2.30;;;10.20;99.90;;;;;;5132943;27;20177;-68
2023/01/02 11:03:19;;;;;;;6.97;2.72;;;9.40;99.90;;;;;;5132495;27;20145;-68
2023/01/02 11:05:51;;;;;;;8.80;2.42;;;8.90;99.90;;;;;;5131650;28;20047;-69
2023/01/02 11:08:20;;;;;;;6.70;3.13;;;9.00;99.90;;;;;;5132863;27;20043;-67
2023/01/02 11:10:47;;;;;;;6.88;3.40;;;9.70;99.90;;;;;;5132739;27;20043;-68
2023/01/02 11:13:15;;;;;;;7.97;2.75;;;10.30;99.90;;;;;;5132640;27;20050;-69
2023/01/02 11:15:49;;;;;;;5.63;2.17;;;7.00;99.90;;;;;;5132399;27;20051;-67
2023/01/02 11:18:30;;;;;;;7.78;2.10;;;7.10;99.90;;;;;;5131315;28;20043;-68
2023/01/02 11:21:03;;;;;;;7.95;2.25;;;7.20;99.90;;;;;;5132630;27;20047;-68
2023/01/02 11:23:41;;;;;;;9.60;2.30;;;8.90;99.90;;;;;;5131350;28;20051;-68
2023/01/02 11:26:18;;;;;;;9.27;2.58;;;10.00;99.90;;;;;;5132641;27;20050;-68
2023/01/02 11:28:45;;;;;;;10.02;2.63;;;9.50;99.90;;;;;;5132582;27;20047;-67
2023/01/02 11:31:14;;;;;;;9.93;2.83;;;9.00;99.90;;;;;;5132332;27;20485;-67
2023/01/02 11:33:40;;;;;;;5.47;2.03;;;7.00;99.90;;;;;;5132516;27;20046;-67
2023/01/02 11:36:12;;;;;;;11.98;2.45;;;7.40;99.90;;;;;;5132503;27;20052;-67
2023/01/02 11:38:52;;;;;;;8.05;2.60;;;8.80;99.90;;;;;;5132463;28;20047;-68
2023/01/02 11:44:42;;;;;;;8.15;2.22;;;10.40;99.90;;;;;;5126402;27;20051;-67
2023/01/02 11:47:11;;;;;;;7.22;2.20;;;10.70;99.90;;;;;;5128510;28;20054;-66
2023/01/02 11:49:41;;;;;;;7.03;2.20;;;7.80;99.90;;;;;;5132004;27;20380;-67
2023/01/02 11:52:14;;;;;;;7.10;2.17;;;10.90;99.90;;;;;;5154836;27;20047;-66
2023/01/02 11:55:17;;;;;;;9.93;2.97;;;10.30;99.90;;;;;;5156836;27;20035;-66
2023/01/02 11:57:55;;;;;;;8.80;2.00;;;9.30;99.90;;;;;;5156843;27;20047;-68
2023/01/02 12:00:23;;;;;;;9.15;2.40;;;7.70;99.90;;;;;;5155942;27;20066;-68
2023/01/02 12:02:52;;;;;;;6.80;2.20;;;7.80;99.90;;;;;;5156440;27;20050;-68
2023/01/02 12:05:56;;;;;;;6.28;2.22;;;10.50;99.90;;;;;;5156183;27;20099;-68
2023/01/02 12:08:56;;;;;;;7.47;2.00;;;9.50;99.90;;;;;;5152125;27;20102;-67
2023/01/02 12:11:40;;;;;;;10.07;2.25;;;9.50;99.90;;;;;;5150662;27;20046;-67
2023/01/02 12:14:11;;;;;;;8.68;2.30;;;10.10;99.90;;;;;;5132349;27;20047;-68
2023/01/02 12:16:49;;;;;;;7.82;2.03;;;10.10;99.90;;;;;;5135338;27;20444;-67
2023/01/02 12:19:25;;;;;;;10.75;1.85;;;10.20;99.90;;;;;;5134588;27;20081;-68
2023/01/02 12:22:03;;;;;;;5.75;1.85;;;9.50;99.90;;;;;;5135116;27;20078;-67
2023/01/02 12:24:36;;;;;;;11.55;2.88;;;10.30;99.90;;;;;;5134579;27;20094;-68
2023/01/02 12:27:19;;;;;;;9.20;2.90;;;9.20;99.90;;;;;;5134081;27;20043;-67
2023/01/02 12:30:07;;;;;;;10.93;1.90;;;9.00;99.90;;;;;;5134501;27;20053;-67
2023/01/02 12:33:03;;;;;;;9.35;1.65;;;8.30;99.90;;;;;;5134986;27;20399;-67
2023/01/02 12:35:35;;;;;;;8.48;2.08;;;8.50;99.90;;;;;;5134063;27;20495;-68
2023/01/02 12:38:07;;;;;;;11.65;1.83;;;10.60;99.90;;;;;;5134727;27;20098;-68
2023/01/02 12:40:37;;;;;;;8.35;1.92;;;9.00;99.90;;;;;;5133743;27;20058;-67
2023/01/02 12:43:20;;;;;;;13.65;3.10;;;10.50;99.90;;;;;;5134046;27;20047;-70
2023/01/02 12:46:03;;;;;;;14.40;3.80;;;8.00;99.90;;;;;;5133442;27;20483;-67
2023/01/02 12:48:51;;;;;;;11.57;2.25;;;8.40;99.90;;;;;;5134246;27;20419;-68
2023/01/02 12:51:32;;;;;;;16.45;2.28;;;10.00;99.90;;;;;;5134501;27;20058;-68
2023/01/02 12:54:07;;;;;;;13.20;1.90;;;8.50;99.90;;;;;;5134567;27;20043;-67
2023/01/02 12:56:58;;;;;;;12.07;1.75;;;10.00;99.90;;;;;;5134110;27;20043;-67
2023/01/02 12:59:47;;;;;;;11.27;2.47;;;8.90;99.90;;;;;;5133879;27;20047;-67
2023/01/02 13:02:35;;;;;;;12.15;2.00;;;9.50;99.90;;;;;;5133917;27;20051;-67
2023/01/02 13:05:04;;;;;;;;;;;10.20;99.90;;;;;;5133920;27;20201;-68
2023/01/02 13:07:42;;;;;;;11.80;2.10;;;9.80;99.90;;;;;;5134237;27;20071;-67
2023/01/02 13:10:15;;;;;;;11.52;3.55;;;8.20;99.90;;;;;;5133219;27;20043;-69
2023/01/02 13:12:41;;;;;;;10.98;2.15;;;8.10;99.90;;;;;;5132571;27;20031;-67
2023/01/02 13:15:19;;;;;;;8.52;2.42;;;9.90;99.90;;;;;;5134640;27;20039;-66
2023/01/02 13:17:48;;;;;;;14.45;2.80;;;9.60;99.90;;;;;;5132747;27;20558;-67